^^
Datos históricos de la estación: Murcia-Puente Tocinos
Diario Informe para Mayo 13, 2019 Unidades:  Métrico    Ingés   Ambas
Diario Semanal Mensual Anual
  Máxima: Mínima: Promedio:
Temperatura: 24.4 °C 17.3 °C 20.2 °C
Punto de rocio: 21.4 °C 16.8 °C 18.3 °C
Humedad: 97% 76% 89%
Velocidad viento: 27km/h 2.2km/h 11.4km/h
Racha viento: 51.8km/h - -
Viento- - Sur
Presión: 1022.9 hPa 1018.1 hPa -
Precipitación: 139.6 mm    
 
 
Tabla de datos para Mayo 13, 2019
Hora Temperatura Punto de rocio Presión Viento Velocidad viento Racha viento Humedad Intensidad lluvia(por hora) Nubes
00:04 18.8 °C 17.7 °C 1022.6 hPa SO 6.9 km/h 9.7 km/h 93% 2.1 mm
00:09 18.7 °C 17.6 °C 1022.6 hPa SO 6.1 km/h 6.9 km/h 93% 2.3 mm
00:14 18.7 °C 17.7 °C 1022.6 hPa SSO 2.3 km/h 8 km/h 93.8% 3.1 mm
00:19 18.7 °C 17.8 °C 1022.9 hPa SO 2.4 km/h 7.4 km/h 94% 3.9 mm
00:24 18.8 °C 17.8 °C 1022.9 hPa OSO 2.9 km/h 8 km/h 94% 5.4 mm
00:29 18.8 °C 17.8 °C 1022.9 hPa NNO 3 km/h 11.1 km/h 94% 7.2 mm
00:34 18.8 °C 17.8 °C 1022.9 hPa North 3.2 km/h 13 km/h 94% 9.7 mm
00:39 18.7 °C 17.8 °C 1022.9 hPa ONO 4.3 km/h 17.2 km/h 94.3% 11.8 mm
00:44 18.6 °C 17.8 °C 1022.9 hPa NO 9.5 km/h 20.4 km/h 95% 13.6 mm
00:49 18.5 °C 17.7 °C 1022.9 hPa NNO 9.4 km/h 20.9 km/h 95% 14.1 mm
00:54 18.4 °C 17.6 °C 1022.6 hPa NO 8.7 km/h 18 km/h 95% 15.8 mm
00:59 18.4 °C 17.6 °C 1022.6 hPa NO 9.4 km/h 24.1 km/h 95% 18.9 mm
01:04 18.3 °C 17.5 °C 1022.6 hPa ONO 11.9 km/h 24.1 km/h 95% 19.7 mm
01:09 18.3 °C 17.5 °C 1022.1 hPa ONO 12.2 km/h 22.5 km/h 95% 21.0 mm
01:14 18.3 °C 17.5 °C 1022.1 hPa Oeste 13.7 km/h 22.5 km/h 95% 22.2 mm
01:19 18.3 °C 17.5 °C 1022.1 hPa Oeste 13.6 km/h 24.1 km/h 95% 23.5 mm
01:24 18.3 °C 17.6 °C 1021.4 hPa OSO 13 km/h 24.1 km/h 95% 24.2 mm
01:29 18.3 °C 17.6 °C 1021.3 hPa SSO 13.2 km/h 24.1 km/h 95% 23.2 mm
01:34 18.4 °C 17.8 °C 1021.8 hPa Sur 14 km/h 30.6 km/h 95.9% 21.9 mm
01:39 18.5 °C 17.8 °C 1021.8 hPa SSO 14.4 km/h 31.5 km/h 95.8% 19.1 mm
01:44 18.6 °C 17.8 °C 1021.8 hPa SO 16.4 km/h 32.2 km/h 95% 19.6 mm
01:49 18.5 °C 17.7 °C 1021.8 hPa OSO 16.1 km/h 27.4 km/h 95% 19.9 mm
01:54 18.4 °C 17.6 °C 1021.3 hPa Oeste 14.8 km/h 27.8 km/h 95% 19.7 mm
01:59 18.4 °C 17.6 °C 1021.2 hPa SO 14.2 km/h 27.4 km/h 95.2% 18.9 mm
02:04 18.3 °C 17.7 °C 1021.7 hPa SO 12.2 km/h 20.9 km/h 96% 18.6 mm
02:09 18.3 °C 17.7 °C 1021.7 hPa SO 12 km/h 22.2 km/h 96% 18.8 mm
02:14 18.3 °C 17.7 °C 1021.7 hPa OSO 11.1 km/h 27.8 km/h 96% 18.1 mm
02:19 18.3 °C 17.7 °C 1022.1 hPa SSO 11.4 km/h 27.4 km/h 96% 16.6 mm
02:24 18.3 °C 17.7 °C 1022.1 hPa SSO 13 km/h 25.9 km/h 96% 14.7 mm
02:29 18.3 °C 17.7 °C 1022.1 hPa Sur 13.1 km/h 25.7 km/h 96% 15.3 mm
02:34 18.3 °C 17.7 °C 1022.1 hPa OSO 13.7 km/h 35.2 km/h 96% 16.8 mm
02:39 18.4 °C 17.7 °C 1021.5 hPa OSO 14.6 km/h 35.9 km/h 95.7% 16.8 mm
02:44 18.4 °C 17.6 °C 1021.5 hPa OSO 19 km/h 35.4 km/h 95% 15.8 mm
02:49 18.4 °C 17.6 °C 1021.5 hPa OSO 18.8 km/h 33.8 km/h 95% 14.0 mm
02:54 18.4 °C 17.6 °C 1021.1 hPa SSO 18 km/h 25.7 km/h 95% 13.2 mm
02:59 18.4 °C 17.6 °C 1021.1 hPa ESE 15.6 km/h 17.7 km/h 95.2% 11.7 mm
03:04 18.4 °C 17.6 °C 1021.5 hPa Sur 7.6 km/h 20.9 km/h 95% 12.8 mm
03:09 18.4 °C 17.7 °C 1021.5 hPa SO 8 km/h 20.9 km/h 95.7% 17.2 mm
03:14 18.3 °C 17.7 °C 1021.5 hPa OSO 9.5 km/h 22.2 km/h 96% 20.7 mm
03:19 18.3 °C 17.7 °C 1021.5 hPa Oeste 9.6 km/h 22.5 km/h 96% 21.2 mm
03:24 18.3 °C 17.7 °C 1021.2 hPa OSO 10 km/h 16.7 km/h 96% 21.3 mm
03:29 18.3 °C 17.7 °C 1021.2 hPa SO 10.2 km/h 18.5 km/h 96% 20.2 mm
03:34 18.3 °C 17.7 °C 1021.2 hPa SSO 11.1 km/h 20.9 km/h 96% 19.5 mm
03:39 18.3 °C 17.7 °C 1021.0 hPa Sur 11 km/h 20.9 km/h 96% 18.2 mm
03:44 18.3 °C 17.7 °C 1021.0 hPa SSO 10.3 km/h 22.2 km/h 96% 16.9 mm
03:49 18.2 °C 17.6 °C 1021.1 hPa SSO 10.6 km/h 22.5 km/h 96% 16.6 mm
03:54 18.2 °C 17.6 °C 1021.1 hPa SSO 12.2 km/h 25.6 km/h 96% 16.6 mm
03:59 18.2 °C 17.6 °C 1021.1 hPa SO 13.2 km/h 28.2 km/h 96% 16.3 mm
04:04 18.3 °C 17.7 °C 1021.1 hPa SO 16.4 km/h 37 km/h 96% 15.6 mm
04:09 18.4 °C 17.6 °C 1020.4 hPa OSO 16.4 km/h 37 km/h 95.2% 10.5 mm
04:14 18.5 °C 17.6 °C 1020.3 hPa OSO 16.4 km/h 37 km/h 94.8% 4.6 mm
04:19 18.6 °C 17.6 °C 1020.3 hPa OSO 15.9 km/h 22.5 km/h 94% 2.0 mm
04:24 18.6 °C 17.6 °C 1019.8 hPa SO 13.7 km/h 27.4 km/h 94% 1.0 mm
04:29 18.6 °C 17.6 °C 1019.8 hPa SSO 13.4 km/h 27.4 km/h 94% 0.8 mm
04:34 18.6 °C 17.6 °C 1020.3 hPa SO 12.2 km/h 22.5 km/h 94% 0.5 mm
04:39 18.6 °C 17.6 °C 1020.3 hPa SO 12 km/h 19.3 km/h 94% 0.5 mm
04:44 18.6 °C 17.6 °C 1020.3 hPa SO 11.1 km/h 20.4 km/h 94% 0.5 mm
04:49 18.5 °C 17.5 °C 1020.3 hPa SO 10.8 km/h 20.9 km/h 94% 0.5 mm
04:54 18.5 °C 17.5 °C 1019.7 hPa SO 9.5 km/h 18 km/h 94% 0.5 mm
04:59 18.5 °C 17.5 °C 1019.7 hPa OSO 9.7 km/h 20.9 km/h 93.7% 0.3 mm
05:04 18.5 °C 17.4 °C 1019.7 hPa OSO 10.3 km/h 20.9 km/h 93% 0.0 mm
05:09 18.6 °C 17.4 °C 1019.2 hPa SO 10.3 km/h 20.9 km/h 92.6% 0.0 mm
05:14 18.7 °C 17.3 °C 1019.1 hPa SO 10 km/h 16.7 km/h 92% 0.0 mm
05:19 18.7 °C 17.4 °C 1019.2 hPa SO 9.6 km/h 16.1 km/h 92% 0.5 mm
05:24 18.7 °C 17.2 °C 1019.2 hPa SO 7.6 km/h 14.8 km/h 91% 0.5 mm
05:29 18.7 °C 17.2 °C 1019.2 hPa SO 7.9 km/h 20.9 km/h 91% 0.8 mm
05:34 18.7 °C 17.2 °C 1019.2 hPa SO 9.5 km/h 20.9 km/h 91% 0.8 mm
05:39 18.7 °C 17.2 °C 1018.6 hPa SSO 9.7 km/h 19.3 km/h 91.1% 0.8 mm
05:44 18.6 °C 17.3 °C 1018.5 hPa Sur 10.3 km/h 22.2 km/h 92% 1.1 mm
05:49 18.6 °C 17.2 °C 1018.8 hPa Sur 10.9 km/h 24.1 km/h 92.1% 1.6 mm
05:54 18.4 °C 17.2 °C 1018.8 hPa Sur 14 km/h 24.5 km/h 93% 2.1 mm
05:59 18.3 °C 17.2 °C 1018.8 hPa Sur 14.5 km/h 25.9 km/h 93% 2.9 mm
06:04 18.2 °C 17.2 °C 1018.8 hPa SSO 16.1 km/h 31.7 km/h 93.6% 3.1 mm
06:09 18.1 °C 17.1 °C 1018.4 hPa SO 16.7 km/h 32.2 km/h 94% 3.6 mm
06:14 18 °C 17 °C 1018.3 hPa SSO 19.8 km/h 37.8 km/h 94% 4.4 mm
06:19 17.9 °C 16.9 °C 1018.6 hPa SO 20.5 km/h 42.6 km/h 94% 4.6 mm
06:24 17.9 °C 17 °C 1018.6 hPa SO 23.6 km/h 41.8 km/h 94.3% 4.7 mm
06:29 17.9 °C 17.1 °C 1018.6 hPa SO 22.7 km/h 35.9 km/h 94.9% 7.0 mm
06:34 17.8 °C 17 °C 1018.6 hPa SO 18.4 km/h 35.4 km/h 95% 10.8 mm
06:39 17.7 °C 16.9 °C 1018.6 hPa SO 18.5 km/h 41.2 km/h 95% 12.3 mm
06:44 17.6 °C 16.9 °C 1018.6 hPa SO 19 km/h 41.8 km/h 95.6% 12.5 mm
06:49 17.6 °C 16.9 °C 1018.6 hPa SO 18.7 km/h 33.8 km/h 96% 13.0 mm
06:54 17.5 °C 16.9 °C 1018.2 hPa SSO 17.2 km/h 30.6 km/h 96% 15.3 mm
06:59 17.5 °C 16.8 °C 1018.2 hPa Sur 18.3 km/h 41.2 km/h 96% 17.9 mm
07:04 17.4 °C 16.8 °C 1019.1 hPa SSO 22 km/h 51.8 km/h 96% 24.1 mm
07:09 17.4 °C 16.9 °C 1019.1 hPa SO 22.9 km/h 51.5 km/h 96.6% 30.5 mm
07:14 17.4 °C 16.9 °C 1019.1 hPa OSO 27 km/h 38.9 km/h 97% 34.8 mm
07:19 17.4 °C 16.9 °C 1019.1 hPa SO 25.8 km/h 38.6 km/h 97% 36.7 mm
07:24 17.4 °C 16.9 °C 1018.2 hPa SSO 19.8 km/h 25.9 km/h 97% 37.4 mm
07:29 17.3 °C 16.9 °C 1018.1 hPa SO 19.1 km/h 29.8 km/h 97% 36.9 mm
07:34 17.3 °C 16.8 °C 1018.1 hPa SO 16.1 km/h 30.6 km/h 97% 35.1 mm
07:39 17.3 °C 16.8 °C 1018.1 hPa Sur 16.4 km/h 29.6 km/h 97% 31.8 mm
07:44 17.3 °C 16.8 °C 1018.1 hPa SSO 18 km/h 29 km/h 97% 30.7 mm
07:49 17.4 °C 16.9 °C 1019.0 hPa Sur 17.5 km/h 24.1 km/h 97% 30.2 mm
07:54 17.4 °C 16.9 °C 1019.0 hPa Sur 14.8 km/h 22.5 km/h 97% 53.4 mm
07:59 17.4 °C 16.9 °C 1019.0 hPa Sur 14.2 km/h 19.3 km/h 97% 51.6 mm
08:04 17.4 °C 16.9 °C 1019.0 hPa Sur 11.9 km/h 19.3 km/h 97% 47.5 mm
08:09 17.4 °C 16.9 °C 1019.0 hPa OSO 11.5 km/h 19.3 km/h 97% 41.9 mm
08:14 17.4 °C 16.9 °C 1019.0 hPa SO 9.5 km/h 16.1 km/h 97% 35.8 mm
08:19 17.4 °C 16.9 °C 1019.0 hPa Sur 9.3 km/h 14.8 km/h 97% 31.0 mm
08:24 17.5 °C 17 °C 1018.8 hPa SO 8.4 km/h 14.8 km/h 97% 29.2 mm
08:29 17.5 °C 17 °C 1018.8 hPa SO 8.4 km/h 17.2 km/h 97% 28.1 mm
08:34 17.6 °C 17.1 °C 1018.8 hPa SO 8.7 km/h 17.7 km/h 97% 27.6 mm
08:39 17.6 °C 17.1 °C 1018.7 hPa SSO 8.9 km/h 16.1 km/h 97% 27.1 mm
08:44 17.6 °C 17.1 °C 1018.7 hPa SO 10 km/h 17.2 km/h 97% 26.9 mm
08:49 17.6 °C 17.1 °C 1018.8 hPa SO 10 km/h 18.5 km/h 97% 26.9 mm
08:54 17.7 °C 17.2 °C 1018.8 hPa SO 10 km/h 19.3 km/h 97% 26.9 mm
08:59 17.7 °C 17.2 °C 1018.8 hPa SO 9.7 km/h 16.7 km/h 97% 1.1 mm
09:04 17.7 °C 17.1 °C 1019.5 hPa Sur 8.7 km/h 14.5 km/h 96.1% 1.1 mm
09:09 17.7 °C 17.1 °C 1019.5 hPa SSE 8.1 km/h 14.5 km/h 96% 0.3 mm
09:14 17.8 °C 17.1 °C 1019.5 hPa Sur 5 km/h 9.3 km/h 96% 0.0 mm
09:19 17.8 °C 17.2 °C 1019.9 hPa SE 5.1 km/h 9.7 km/h 96% 0.0 mm
09:24 17.9 °C 17.3 °C 1019.9 hPa SE 5.8 km/h 10 km/h 96% 0.5 mm
09:29 17.9 °C 17.3 °C 1019.9 hPa SO 6 km/h 14.8 km/h 96% 2.5 mm
09:34 17.9 °C 17.3 °C 1019.9 hPa SO 6.9 km/h 18.5 km/h 96% 3.5 mm
09:39 17.9 °C 17.3 °C 1019.0 hPa SSO 7.4 km/h 19.3 km/h 96% 3.5 mm
09:44 18 °C 17.4 °C 1018.9 hPa SSO 9.5 km/h 14.8 km/h 96% 3.5 mm
09:49 18.1 °C 17.4 °C 1019.5 hPa SSO 9.1 km/h 14.5 km/h 96% 3.5 mm
09:54 18.1 °C 17.4 °C 1019.5 hPa SSE 7.6 km/h 11.3 km/h 96% 3.5 mm
09:59 18.2 °C 17.5 °C 1019.5 hPa SSO 7.4 km/h 14.8 km/h 96% 3.5 mm
10:04 18.2 °C 17.6 °C 1019.6 hPa SSO 6.9 km/h 16.7 km/h 96% 3.5 mm
10:09 18.3 °C 17.6 °C 1019.6 hPa SO 7.7 km/h 16.1 km/h 96% 3.5 mm
10:14 18.3 °C 17.7 °C 1019.6 hPa SO 11.1 km/h 19 km/h 96% 3.5 mm
10:19 18.4 °C 17.7 °C 1020.1 hPa OSO 10.9 km/h 19.3 km/h 95.8% 3.5 mm
10:24 18.4 °C 17.6 °C 1020.1 hPa OSO 10 km/h 16.1 km/h 95% 3.5 mm
10:29 18.4 °C 17.6 °C 1020.1 hPa SO 9.5 km/h 16.1 km/h 95% 2.5 mm
10:34 18.4 °C 17.6 °C 1020.4 hPa SO 7.6 km/h 14.5 km/h 95% 1.5 mm
10:39 18.4 °C 17.6 °C 1020.4 hPa SO 7.5 km/h 14.5 km/h 95% 1.6 mm
10:44 18.4 °C 17.6 °C 1020.4 hPa Oeste 6.9 km/h 13.7 km/h 95% 1.6 mm
10:49 18.5 °C 17.7 °C 1020.4 hPa Oeste 7.2 km/h 14.5 km/h 95% 1.6 mm
10:54 18.6 °C 17.8 °C 1020.3 hPa ONO 8.4 km/h 12.9 km/h 95.4% 1.6 mm
10:59 18.6 °C 17.9 °C 1020.3 hPa Oeste 7.7 km/h 10 km/h 96% 1.6 mm
11:04 18.6 °C 18 °C 1020.6 hPa OSO 5 km/h 9.7 km/h 96% 1.6 mm
11:09 18.7 °C 18.1 °C 1020.6 hPa SO 4.9 km/h 10.3 km/h 96% 1.6 mm
11:14 18.7 °C 18.1 °C 1020.6 hPa OSO 4.7 km/h 11.3 km/h 96% 1.6 mm
11:19 18.6 °C 18 °C 1021.0 hPa OSO 4.9 km/h 11.3 km/h 96% 1.6 mm
11:24 18.6 °C 17.9 °C 1021.0 hPa Oeste 5.8 km/h 11.3 km/h 96% 1.6 mm
11:29 18.6 °C 18 °C 1021.0 hPa Oeste 5.3 km/h 8 km/h 96% 1.6 mm
11:34 18.7 °C 18.1 °C 1021.0 hPa ONO 3.2 km/h 8 km/h 96% 1.3 mm
11:39 18.8 °C 18.1 °C 1020.9 hPa ONO 3 km/h 7.4 km/h 95.6% 0.3 mm
11:44 18.8 °C 18.2 °C 1020.9 hPa ONO 2.2 km/h 8 km/h 96% 0.0 mm
11:49 19 °C 18.2 °C 1021.1 hPa Oeste 2.4 km/h 8 km/h 95.1% 0.0 mm
11:54 19.2 °C 18.3 °C 1021.1 hPa Oeste 3.2 km/h 11.1 km/h 95% 0.0 mm
11:59 19.2 °C 18.2 °C 1021.1 hPa SO 3.6 km/h 11.3 km/h 94% 0.0 mm
12:04 19.2 °C 18.1 °C 1021.1 hPa Oeste 5 km/h 10 km/h 93.1% 0.0 mm
12:09 19.4 °C 18.2 °C 1021.1 hPa OSO 5 km/h 11.1 km/h 93% 0.0 mm
12:14 19.6 °C 18.3 °C 1021.1 hPa OSO 5 km/h 13 km/h 92.1% 0.0 mm
12:19 19.7 °C 18.3 °C 1021.1 hPa ONO 4.9 km/h 12.9 km/h 91.5% 0.0 mm
12:24 19.8 °C 18.3 °C 1020.9 hPa ONO 4.7 km/h 8.4 km/h 91.1% 0.0 mm
12:29 19.8 °C 18.1 °C 1020.9 hPa Oeste 4.4 km/h 8 km/h 90% 0.0 mm
12:34 19.9 °C 18.3 °C 1021.0 hPa Oeste 3.2 km/h 6.4 km/h 90.5% 0.0 mm
12:39 20.2 °C 18.4 °C 1021.0 hPa ONO 3.1 km/h 7.4 km/h 89.6% 0.0 mm
12:44 20.4 °C 18.6 °C 1021.0 hPa OSO 2.2 km/h 8 km/h 89.5% 0.0 mm
12:49 20.6 °C 18.5 °C 1021.0 hPa OSO 2.5 km/h 9.3 km/h 87.8% 0.0 mm
12:54 20.7 °C 18.5 °C 1020.9 hPa OSO 3.9 km/h 9.7 km/h 87% 0.0 mm
12:59 21 °C 18.7 °C 1020.9 hPa SSO 3.9 km/h 10 km/h 86.7% 0.0 mm
13:04 21.2 °C 18.7 °C 1020.9 hPa Oeste 3.9 km/h 9.7 km/h 85.6% 0.0 mm
13:09 21.2 °C 18.5 °C 1020.9 hPa OSO 4 km/h 11.1 km/h 84.7% 0.0 mm
13:14 21.3 °C 18.5 °C 1020.9 hPa SSO 5 km/h 11.3 km/h 84% 0.0 mm
13:19 21.4 °C 18.7 °C 1020.9 hPa SE 4.9 km/h 9.7 km/h 84.5% 0.0 mm
13:24 21.7 °C 18.9 °C 1020.8 hPa SSO 4.7 km/h 10 km/h 83.9% 0.0 mm
13:29 21.8 °C 18.8 °C 1020.8 hPa ONO 5 km/h 11.1 km/h 82.9% 0.0 mm
13:34 21.8 °C 18.8 °C 1020.8 hPa ONO 6.4 km/h 11.3 km/h 83.3% 0.0 mm
13:39 21.9 °C 18.9 °C 1020.7 hPa ONO 5.7 km/h 7.4 km/h 82.9% 0.0 mm
13:44 22.1 °C 19.1 °C 1020.7 hPa SO 2.3 km/h 9.3 km/h 82.8% 0.0 mm
13:49 22.3 °C 19.2 °C 1020.7 hPa OSO 2.7 km/h 9.7 km/h 82.6% 0.0 mm
13:54 22.4 °C 19.1 °C 1020.4 hPa Oeste 4.7 km/h 9.7 km/h 81.6% 0.0 mm
13:59 22.7 °C 19.4 °C 1020.4 hPa ONO 4.3 km/h 9.3 km/h 81.9% 0.0 mm
14:04 22.8 °C 19.4 °C 1020.4 hPa ONO 3.2 km/h 9.7 km/h 81% 0.0 mm
14:09 22.9 °C 19.3 °C 1020.4 hPa Oeste 3.5 km/h 9.7 km/h 80% 0.0 mm
14:14 23.1 °C 19.5 °C 1020.4 hPa Oeste 4.7 km/h 8.4 km/h 80.2% 0.0 mm
14:19 23.2 °C 19.5 °C 1020.4 hPa NNO 4.5 km/h 11.1 km/h 79.6% 0.0 mm
14:24 23.3 °C 19.6 °C 1020.3 hPa NO 3.9 km/h 11.3 km/h 79.8% 0.0 mm
14:29 23.4 °C 19.8 °C 1020.3 hPa NNE 4.3 km/h 11.3 km/h 80.2% 0.0 mm
14:34 23.5 °C 19.7 °C 1020.3 hPa NE 6.4 km/h 11.3 km/h 79.4% 0.0 mm
14:39 23.6 °C 19.9 °C 1020.1 hPa NE 6.1 km/h 9.3 km/h 79.7% 0.0 mm
14:44 23.8 °C 20.1 °C 1020.1 hPa NE 4.7 km/h 9.7 km/h 80% 0.0 mm
14:49 23.9 °C 20 °C 1020.1 hPa NE 4.5 km/h 9.7 km/h 79.2% 0.0 mm
14:54 24 °C 20.1 °C 1020.1 hPa NNE 3.9 km/h 8 km/h 79% 0.0 mm
14:59 24.1 °C 20.2 °C 1020.1 hPa North 4 km/h 8.7 km/h 79% 0.0 mm
15:04 24.1 °C 20.2 °C 1020.1 hPa NNE 4.6 km/h 11.9 km/h 79% 0.0 mm
15:09 24 °C 20.2 °C 1020.0 hPa NE 5.1 km/h 15.6 km/h 79.5% 0.0 mm
15:14 23.9 °C 20.3 °C 1020.0 hPa NE 7.6 km/h 18.5 km/h 80.2% 0.0 mm
15:19 23.9 °C 20.4 °C 1020.0 hPa NE 7.9 km/h 19.3 km/h 80.8% 0.0 mm
15:24 23.9 °C 20.4 °C 1019.8 hPa NE 9.5 km/h 16.1 km/h 80.7% 0.0 mm
15:29 24.1 °C 20.6 °C 1019.8 hPa NE 9.6 km/h 16.7 km/h 81% 0.0 mm
15:34 24.2 °C 20.7 °C 1019.8 hPa NE 10 km/h 16.7 km/h 80.6% 0.0 mm
15:39 24.4 °C 21 °C 1019.4 hPa NE 10.6 km/h 38.9 km/h 81.3% 0.0 mm
15:44 24.3 °C 21.1 °C 1019.4 hPa NE 13.7 km/h 38.6 km/h 82.4% 0.0 mm
15:49 23.9 °C 21.1 °C 1019.4 hPa NE 15.3 km/h 37 km/h 84.6% 0.0 mm
15:54 23.8 °C 21.3 °C 1019.2 hPa NE 22.5 km/h 35.2 km/h 85.9% 0.0 mm
15:59 23.9 °C 21.4 °C 1019.2 hPa NE 22.2 km/h 35.4 km/h 85.7% 0.0 mm
16:04 24.2 °C 21.4 °C 1019.2 hPa NE 20.9 km/h 35.4 km/h 84.9% 0.0 mm
16:09 24.3 °C 21.3 °C 1018.9 hPa NE 20.4 km/h 29.6 km/h 83.3% 0.0 mm
16:14 24.2 °C 21.2 °C 1018.9 hPa NE 18 km/h 29.6 km/h 83.3% 0.0 mm
16:19 24.2 °C 21.2 °C 1019.0 hPa NE 18.2 km/h 31.5 km/h 83.4% 0.0 mm
16:24 24.2 °C 21.1 °C 1019.0 hPa NE 19 km/h 32.2 km/h 83.3% 0.0 mm
16:29 24.1 °C 21.2 °C 1019.0 hPa NNE 18.7 km/h 30.6 km/h 83.6% 0.0 mm
16:34 24.1 °C 21.2 °C 1019.2 hPa NE 17.2 km/h 30.6 km/h 84% 0.0 mm
16:39 24 °C 21 °C 1019.2 hPa NE 17 km/h 28.2 km/h 83.3% 0.0 mm
16:44 23.9 °C 20.9 °C 1019.2 hPa NE 16.1 km/h 33.3 km/h 83.3% 0.0 mm
16:49 23.9 °C 21 °C 1019.2 hPa NE 15.9 km/h 33.8 km/h 83.6% 0.0 mm
16:54 23.9 °C 20.9 °C 1019.1 hPa NE 14.8 km/h 32.2 km/h 83.3% 0.0 mm
16:59 23.8 °C 20.8 °C 1019.1 hPa NE 14.8 km/h 27.8 km/h 83.1% 0.0 mm
17:04 23.7 °C 20.6 °C 1019.1 hPa NE 14.8 km/h 27.8 km/h 82.9% 0.0 mm
17:09 23.6 °C 20.4 °C 1019.0 hPa NNE 15.3 km/h 33.5 km/h 82.2% 0.0 mm
17:14 23.4 °C 20.2 °C 1019.0 hPa NE 18 km/h 33.8 km/h 82% 0.0 mm
17:19 23.4 °C 20.2 °C 1019.0 hPa NE 17.4 km/h 29 km/h 82.1% 0.0 mm
17:24 23.4 °C 20.3 °C 1018.8 hPa NE 14 km/h 22.2 km/h 83% 0.0 mm
17:29 23.4 °C 20.6 °C 1018.8 hPa NE 13.8 km/h 25.9 km/h 84.4% 0.0 mm
17:34 23.4 °C 20.9 °C 1018.8 hPa NE 13 km/h 31.7 km/h 85.9% 0.0 mm
17:39 23.3 °C 21 °C 1018.8 hPa NE 13.9 km/h 33.3 km/h 86.6% 0.0 mm
17:44 23.3 °C 21 °C 1018.8 hPa NE 18 km/h 33.8 km/h 87.1% 0.0 mm
17:49 23.3 °C 21.2 °C 1018.8 hPa NE 18.1 km/h 35.2 km/h 88% 0.0 mm
17:54 23.3 °C 21.2 °C 1018.8 hPa NE 18.4 km/h 35.4 km/h 88% 0.0 mm
17:59 23.3 °C 21.2 °C 1018.8 hPa NNE 17.9 km/h 27.4 km/h 88% 0.0 mm
18:04 23.2 °C 21.2 °C 1018.9 hPa NE 16.4 km/h 29.8 km/h 88.2% 0.2 mm
18:09 23.1 °C 21.2 °C 1018.9 hPa NE 17 km/h 35.9 km/h 89% 0.2 mm
18:14 22.9 °C 21.1 °C 1018.9 hPa NE 19.8 km/h 37 km/h 89.7% 0.2 mm
18:19 22.9 °C 21.1 °C 1019.0 hPa NE 20.2 km/h 37 km/h 89.8% 0.2 mm
18:24 22.9 °C 21.1 °C 1019.0 hPa NE 22.1 km/h 33.8 km/h 89.4% 0.7 mm
18:29 22.9 °C 21 °C 1019.0 hPa NE 22 km/h 41.2 km/h 89% 0.7 mm
18:34 23 °C 20.9 °C 1019.3 hPa NE 21.7 km/h 41.8 km/h 88.2% 0.7 mm
18:39 23.1 °C 20.7 °C 1019.3 hPa NE 22 km/h 38.9 km/h 86.6% 0.7 mm
18:44 23.1 °C 20.4 °C 1019.3 hPa NE 23.3 km/h 40.7 km/h 84.9% 0.7 mm
18:49 23.1 °C 20.1 °C 1019.4 hPa NE 23.4 km/h 41.2 km/h 83.1% 0.7 mm
18:54 23.1 °C 20 °C 1019.4 hPa NE 23.7 km/h 41.8 km/h 82.8% 0.7 mm
18:59 23.1 °C 19.8 °C 1019.4 hPa NE 23.6 km/h 41.2 km/h 82% 0.7 mm
19:04 23.1 °C 19.8 °C 1019.7 hPa NE 23.3 km/h 42.6 km/h 81.5% 0.7 mm
19:09 23.1 °C 19.7 °C 1019.7 hPa NE 23.7 km/h 42.6 km/h 81% 0.5 mm
19:14 23 °C 19.4 °C 1019.7 hPa NE 25.1 km/h 41.8 km/h 80.4% 0.5 mm
19:19 22.9 °C 19.1 °C 1019.7 hPa NE 24.2 km/h 40.7 km/h 79.4% 0.5 mm
19:24 22.8 °C 19 °C 1019.7 hPa NE 20.1 km/h 40.2 km/h 79% 0.0 mm
19:29 22.8 °C 18.8 °C 1019.7 hPa NE 20.3 km/h 48.4 km/h 78.2% 0.0 mm
19:34 22.7 °C 18.4 °C 1019.8 hPa NE 20.9 km/h 48.3 km/h 77% 0.0 mm
19:39 22.6 °C 18.5 °C 1019.8 hPa NE 21.8 km/h 43.5 km/h 77.8% 0.0 mm
19:44 22.5 °C 18.5 °C 1019.8 hPa NE 25.6 km/h 41.2 km/h 78.4% 0.0 mm
19:49 22.4 °C 18.6 °C 1020.1 hPa NE 25.5 km/h 44.4 km/h 79.1% 0.0 mm
19:54 22.3 °C 18.7 °C 1020.1 hPa NE 25.1 km/h 45.1 km/h 80% 0.0 mm
19:59 22.2 °C 18.8 °C 1020.1 hPa NE 24.6 km/h 41.8 km/h 80.9% 0.0 mm
20:04 22.1 °C 18.8 °C 1020.4 hPa NE 22.5 km/h 37.8 km/h 81.5% 0.0 mm
20:09 22 °C 18.8 °C 1020.4 hPa NE 22.2 km/h 37 km/h 82% 0.0 mm
20:14 21.9 °C 18.5 °C 1020.4 hPa NE 20.9 km/h 35.9 km/h 81.1% 0.0 mm
20:19 21.8 °C 18.4 °C 1020.5 hPa NE 20.6 km/h 35.4 km/h 81% 0.0 mm
20:24 21.8 °C 18.3 °C 1020.5 hPa NE 19 km/h 25.7 km/h 81% 0.0 mm
20:29 21.7 °C 18.1 °C 1020.5 hPa NE 18.3 km/h 31.7 km/h 80.3% 0.0 mm
20:34 21.6 °C 17.9 °C 1020.5 hPa NE 14.8 km/h 32.2 km/h 79.4% 0.0 mm
20:39 21.6 °C 17.9 °C 1020.4 hPa NE 15 km/h 29 km/h 79.5% 0.0 mm
20:44 21.5 °C 17.7 °C 1020.4 hPa NE 16.4 km/h 25.9 km/h 79% 0.0 mm
20:49 21.4 °C 17.5 °C 1020.4 hPa NE 16.1 km/h 24.1 km/h 78.3% 0.0 mm
20:54 21.4 °C 17.4 °C 1020.4 hPa NE 14.8 km/h 24.1 km/h 78% 0.0 mm
20:59 21.3 °C 17.3 °C 1020.4 hPa NE 14.2 km/h 19.3 km/h 78% 0.0 mm
21:04 21.3 °C 17.2 °C 1020.6 hPa NE 11.9 km/h 19.3 km/h 77.6% 0.0 mm
21:09 21.2 °C 16.9 °C 1020.6 hPa NE 11.6 km/h 20.4 km/h 76.8% 0.0 mm
21:14 21.2 °C 16.8 °C 1020.6 hPa NE 10.3 km/h 20.9 km/h 76% 0.0 mm
21:19 21.2 °C 16.8 °C 1020.8 hPa NNE 10.3 km/h 20.9 km/h 76% 0.0 mm
21:24 21.1 °C 16.8 °C 1020.8 hPa North 10 km/h 12.9 km/h 76.5% 0.0 mm
21:29 21.1 °C 16.9 °C 1020.8 hPa North 9.4 km/h 11.3 km/h 77.3% 0.0 mm
21:34 20.9 °C 17 °C 1020.8 hPa North 6.5 km/h 11.1 km/h 78% 0.0 mm
21:39 20.8 °C 17.1 °C 1020.8 hPa NNE 6.3 km/h 11.3 km/h 79% 0.0 mm
21:44 20.8 °C 17 °C 1020.8 hPa NNE 5.8 km/h 13 km/h 79% 0.0 mm
21:49 20.8 °C 17 °C 1021.1 hPa NE 6 km/h 13 km/h 78.9% 0.0 mm
21:54 20.8 °C 16.9 °C 1021.1 hPa North 6.9 km/h 12.9 km/h 78.6% 0.0 mm
21:59 20.8 °C 17 °C 1021.1 hPa NO 6.2 km/h 9.7 km/h 79% 0.0 mm
22:04 20.8 °C 17 °C 1021.3 hPa ONO 3.9 km/h 8.4 km/h 79% 0.0 mm
22:09 20.8 °C 17.2 °C 1021.3 hPa ONO 4.1 km/h 8 km/h 79.9% 0.0 mm
22:14 20.7 °C 17.1 °C 1021.3 hPa Oeste 5 km/h 9.5 km/h 80% 0.0 mm
22:19 20.7 °C 17.1 °C 1021.5 hPa Oeste 5.3 km/h 9.7 km/h 80.1% 0.0 mm
22:24 20.6 °C 17 °C 1021.5 hPa ONO 6.4 km/h 9.7 km/h 80% 0.0 mm
22:29 20.7 °C 17.2 °C 1021.5 hPa ONO 6.2 km/h 9.7 km/h 80.3% 0.0 mm
22:34 20.7 °C 17.3 °C 1021.6 hPa ONO 5 km/h 8.4 km/h 81% 0.0 mm
22:39 20.7 °C 17.3 °C 1021.6 hPa ONO 5.1 km/h 9.5 km/h 81% 0.0 mm
22:44 20.7 °C 17.3 °C 1021.6 hPa ONO 5.8 km/h 9.7 km/h 81% 0.0 mm
22:49 20.7 °C 17.3 °C 1021.7 hPa Oeste 5.8 km/h 9.7 km/h 81% 0.0 mm
22:54 20.7 °C 17.5 °C 1021.7 hPa OSO 5.8 km/h 9.7 km/h 81.9% 0.0 mm
22:59 20.7 °C 17.5 °C 1021.7 hPa OSO 5.6 km/h 10 km/h 81.8% 0.0 mm
23:04 20.7 °C 17.4 °C 1021.7 hPa NO 5 km/h 9.7 km/h 81.3% 0.0 mm
23:09 20.7 °C 17.5 °C 1021.1 hPa NNE 5 km/h 8.4 km/h 82% 0.0 mm
23:14 20.7 °C 17.5 °C 1021.0 hPa NNE 5 km/h 8 km/h 82% 0.0 mm
23:19 20.6 °C 17.5 °C 1021.0 hPa North 4.6 km/h 6.9 km/h 82% 0.0 mm
23:24 20.6 °C 17.5 °C 1020.5 hPa Oeste 2.9 km/h 8 km/h 82.4% 0.0 mm
23:29 20.6 °C 17.6 °C 1020.5 hPa OSO 3.3 km/h 9.3 km/h 83% 0.0 mm
23:34 20.6 °C 17.6 °C 1020.7 hPa SO 5 km/h 9.7 km/h 83% 0.0 mm
23:39 20.5 °C 17.5 °C 1020.7 hPa SO 4.9 km/h 9.3 km/h 83% 0.0 mm
23:44 20.6 °C 17.6 °C 1020.7 hPa OSO 4.7 km/h 9.7 km/h 83% 0.0 mm
23:49 20.6 °C 17.6 °C 1020.7 hPa OSO 4.5 km/h 8 km/h 83% 0.0 mm
23:54 20.6 °C 17.6 °C 1020.7 hPa OSO 3.9 km/h 8 km/h 83% 0.0 mm
23:59 20.7 °C 17.7 °C 1020.7 hPa SO 3 km/h 7.4 km/h 83% 0.0 mm
Murcia-Puente Tocinos, España
Compliments of Weather Underground - 3 mb

La estación de MeteoMurcia.com, publica sus datos en los siguientes proyectos:

Weather Underground PWS IMURCIAP2 Meteoclimatic www.awekas.at

W3Counter
Web Analytics